Grimes, IA (50111)

5:19 AM CDT on April 02, 2015 (GMT -0500)
T & T Sprinkler Service Inc. | | Change Station
CLOSE
Current Station
Personal Weather Station
Location: Grimes, IA
Elevation: 955 ft
Nearby Weather Stations

Elev 955 ft 41.67 °N, 93.77 °W | Updated 17 seconds ago

Rain
Rain
53.2 °F
Feels Like 53.2 °F
N
4.0
Wind Variable Wind from NE
Gusts 5.0 mph

Today
High -- | Low -- °F
--% Chance of Precip.
Yesterday
High -- | Low -- °F
Precip. -- in
6:56 AM 7:41 PM
Waxing Gibbous, 96% visible
Pressure 29.70 in
Visibility 9.0 miles
Clouds Few 2700 ft
Overcast 7500 ft
Dew Point 50 °F
Humidity 90%
Rainfall 0.38 in
Snow Depth Not available.
UV 0.0 out of 12
Pollen 10.00 out of 12
Air Quality Not available.
Flu Activity Not available.
METAR KIKV 020955Z AUTO 01007G13KT 9SM -RA FEW027 OVC075 12/11 A2970 RMK AO2 P0013

More Conditions Fewer Conditions

Pressure 29.70 in
Visibility 9.0 miles
Clouds Few 2700 ft
Overcast 7500 ft
Dew Point 50 °F
Humidity 90%
Rainfall 0.38 in
Snow Depth Not available.
UV 0.0 out of 12
Pollen 10.00 out of 12
Air Quality Not available.
Flu Activity Not available.
METAR KIKV 020955Z AUTO 01007G13KT 9SM -RA FEW027 OVC075 12/11 A2970 RMK AO2 P0013

More Conditions Fewer Conditions

10-Day Weather Forecast

Almanac

Astronomy

Apr. 02, 2015 Rise Set
Actual Time
Civil Twilight
Nautical Twilight
Astronomical Twilight
Moon
Length of Visible Light
Length of Day
Tomorrow will be .
, % of the Moon is Illuminated

Today's Extremes

State Highs State Lows

Community

WunderPhotos

Upload Photos

1,810,216 photos uploaded!

WunderBlogs® & News

Nearby

Air Quality

  Air Quality AQ Index Pollutant
Not available.

Snow Depth

Station Depth Elevation

Earthquake Activity

City Distance Mag. Time & Date
Minimum magnitude displayed is 2.5.

Coastal Water Temperatures

Place Temperature

Stations

Nearby Weather Stations

Station Location Temp. Windchill Dew Point Humidity Wind Precip. Elev Updated Type